createdAt,value
2022-10-07T00:02:10.107Z,8.77
2022-10-07T00:04:37.486Z,8.00
2022-10-07T00:07:04.432Z,8.97
2022-10-07T00:09:31.259Z,12.70
2022-10-07T00:11:58.889Z,16.23
2022-10-07T00:14:26.008Z,9.77
2022-10-07T00:16:53.138Z,7.87
2022-10-07T00:19:20.019Z,17.27
2022-10-07T00:21:47.441Z,13.37
2022-10-07T00:24:16.217Z,11.23
2022-10-07T00:26:43.161Z,12.47
2022-10-07T00:29:10.250Z,12.50
2022-10-07T00:31:37.519Z,9.23
2022-10-07T00:34:04.711Z,14.33
2022-10-07T00:36:33.181Z,12.47
2022-10-07T00:39:01.850Z,9.97
2022-10-07T00:41:39.617Z,8.37
2022-10-07T00:44:31.459Z,10.13
2022-10-07T00:46:58.932Z,8.13
2022-10-07T00:49:27.554Z,9.83
2022-10-07T00:51:54.544Z,8.10
2022-10-07T00:54:21.550Z,8.40
2022-10-07T00:56:50.272Z,8.43
2022-10-07T00:59:19.123Z,8.47
2022-10-07T01:01:46.476Z,13.73
2022-10-07T01:04:15.088Z,12.10
2022-10-07T01:06:42.055Z,13.10
2022-10-07T01:09:09.748Z,11.50
2022-10-07T01:11:45.129Z,13.27
2022-10-07T01:14:35.000Z,13.77
2022-10-07T01:17:06.814Z,11.40
2022-10-07T01:20:13.176Z,12.50
2022-10-07T01:22:59.591Z,10.73
2022-10-07T01:25:38.438Z,17.60
2022-10-07T01:28:12.262Z,12.00
2022-10-07T01:30:42.539Z,14.67
2022-10-07T01:33:12.642Z,12.37
2022-10-07T01:35:41.238Z,19.10
2022-10-07T01:38:10.201Z,13.83
2022-10-07T01:40:42.542Z,16.67
2022-10-07T01:43:09.693Z,15.13
2022-10-07T01:45:39.228Z,12.57
2022-10-07T01:48:06.352Z,10.90
2022-10-07T01:50:34.311Z,12.47
2022-10-07T01:53:04.362Z,11.37
2022-10-07T01:55:31.209Z,11.50
2022-10-07T01:58:01.135Z,9.93
2022-10-07T02:00:29.462Z,12.80
2022-10-07T02:03:05.682Z,9.80
2022-10-07T02:05:42.955Z,12.27
2022-10-07T02:08:12.967Z,10.77
2022-10-07T02:10:54.469Z,9.10
2022-10-07T02:13:26.135Z,10.63
2022-10-07T02:16:01.760Z,13.40
2022-10-07T02:18:30.007Z,12.43
2022-10-07T02:20:57.129Z,13.07
2022-10-07T02:23:25.585Z,14.40
2022-10-07T02:25:54.104Z,13.47
2022-10-07T02:28:22.940Z,7.73
2022-10-07T02:30:54.092Z,8.63
2022-10-07T02:33:24.075Z,9.20
2022-10-07T02:35:55.883Z,8.43
2022-10-07T02:38:23.115Z,16.97
2022-10-07T02:40:50.357Z,23.83
2022-10-07T02:43:20.290Z,17.50
2022-10-07T02:45:55.375Z,21.40
2022-10-07T02:48:24.743Z,18.03
2022-10-07T02:50:54.124Z,24.30
2022-10-07T02:53:21.746Z,22.17
2022-10-07T02:55:50.610Z,19.47
2022-10-07T02:58:19.159Z,16.33
2022-10-07T03:00:47.696Z,17.40
2022-10-07T03:03:16.122Z,12.43
2022-10-07T03:05:56.297Z,9.23
2022-10-07T03:08:24.223Z,12.23
2022-10-07T03:10:51.656Z,8.30
2022-10-07T03:13:18.758Z,16.27
2022-10-07T03:15:51.772Z,16.10
2022-10-07T03:18:29.587Z,11.90
2022-10-07T03:21:22.851Z,13.13
2022-10-07T03:23:53.206Z,15.70
2022-10-07T03:26:22.464Z,13.20
2022-10-07T03:28:49.827Z,13.03
2022-10-07T03:31:17.465Z,10.37
2022-10-07T03:33:48.402Z,16.37
2022-10-07T03:36:15.195Z,10.30
2022-10-07T03:38:45.014Z,14.20
2022-10-07T03:41:12.968Z,19.37
2022-10-07T03:43:40.127Z,11.60
2022-10-07T03:46:08.822Z,13.93
2022-10-07T03:48:37.405Z,18.40
2022-10-07T03:51:04.429Z,13.87
2022-10-07T03:53:34.075Z,13.80
2022-10-07T03:56:01.981Z,14.13
2022-10-07T03:58:30.659Z,19.77
2022-10-07T04:01:08.256Z,29.70
2022-10-07T04:03:37.219Z,44.83
2022-10-07T04:06:04.504Z,36.30
2022-10-07T04:08:34.072Z,32.93
2022-10-07T04:11:02.951Z,17.63
2022-10-07T04:13:31.894Z,20.40
2022-10-07T04:15:59.214Z,24.33
2022-10-07T04:18:27.041Z,27.87
2022-10-07T04:20:54.161Z,24.50
2022-10-07T04:23:21.801Z,20.97
2022-10-07T04:25:48.780Z,28.30
2022-10-07T04:28:22.792Z,24.67
2022-10-07T04:30:54.140Z,24.90
2022-10-07T04:33:27.110Z,31.67
2022-10-07T04:35:55.901Z,32.07
2022-10-07T04:38:27.571Z,34.60
2022-10-07T04:40:56.776Z,31.13
2022-10-07T04:43:23.779Z,30.13
2022-10-07T04:46:10.989Z,104.53
2022-10-07T04:48:46.104Z,86.80
2022-10-07T04:51:16.321Z,66.43
2022-10-07T04:53:56.329Z,77.10
2022-10-07T04:56:28.554Z,111.07
2022-10-07T04:58:56.319Z,122.00
2022-10-07T05:01:24.040Z,93.13
2022-10-07T05:03:51.247Z,59.63
2022-10-07T05:06:18.671Z,30.73
2022-10-07T05:08:45.972Z,38.37
2022-10-07T05:11:14.163Z,30.77
2022-10-07T05:13:50.929Z,22.03
2022-10-07T05:16:17.875Z,21.90
2022-10-07T05:18:44.701Z,21.23
2022-10-07T05:21:13.713Z,21.20
2022-10-07T05:23:44.658Z,22.90
2022-10-07T05:26:16.056Z,21.27
2022-10-07T05:28:49.573Z,21.60
2022-10-07T05:31:22.191Z,30.83
2022-10-07T05:33:53.751Z,31.23
2022-10-07T05:36:24.513Z,27.70
2022-10-07T05:38:58.208Z,30.90
2022-10-07T05:41:31.500Z,32.63
2022-10-07T05:44:01.451Z,34.07
2022-10-07T05:46:28.425Z,30.87
2022-10-07T05:48:58.190Z,30.07
2022-10-07T05:51:30.619Z,26.33
2022-10-07T05:53:59.109Z,30.30
2022-10-07T05:56:32.683Z,24.80
2022-10-07T05:58:59.665Z,23.90
2022-10-07T06:01:29.308Z,26.03
2022-10-07T06:03:59.360Z,25.13
2022-10-07T06:06:32.161Z,27.03
2022-10-07T06:09:21.363Z,33.30
2022-10-07T06:12:07.476Z,38.17
2022-10-07T06:14:36.602Z,37.53
2022-10-07T06:17:05.147Z,36.40
2022-10-07T06:19:32.242Z,46.43
2022-10-07T06:22:01.692Z,43.77
2022-10-07T06:24:28.779Z,43.83
2022-10-07T06:26:56.162Z,42.20
2022-10-07T06:29:24.806Z,48.77
2022-10-07T06:31:51.679Z,45.53
2022-10-07T06:34:19.424Z,44.90
2022-10-07T06:36:47.264Z,49.93
2022-10-07T06:39:17.082Z,46.57
2022-10-07T06:41:45.951Z,51.77
2022-10-07T06:44:39.179Z,49.93
2022-10-07T06:47:11.920Z,41.97
2022-10-07T06:49:41.581Z,41.57
2022-10-07T06:52:08.559Z,26.27
2022-10-07T06:54:36.256Z,21.90
2022-10-07T06:57:15.411Z,19.93
2022-10-07T06:59:50.917Z,18.97
2022-10-07T07:02:18.092Z,15.17
2022-10-07T07:04:45.309Z,15.10
2022-10-07T07:07:12.219Z,17.87
2022-10-07T07:09:39.773Z,19.77
2022-10-07T07:12:08.176Z,12.90
2022-10-07T07:14:39.078Z,11.30
2022-10-07T07:17:11.331Z,12.03
2022-10-07T07:19:38.393Z,12.33
2022-10-07T07:22:07.753Z,13.73
2022-10-07T07:24:35.100Z,13.30
2022-10-07T07:27:03.451Z,12.43
2022-10-07T07:29:30.922Z,12.60
2022-10-07T07:32:00.226Z,10.67
2022-10-07T07:34:30.460Z,11.03
2022-10-07T07:36:57.666Z,9.40
2022-10-07T07:39:30.082Z,14.90
2022-10-07T07:42:12.132Z,8.87
2022-10-07T07:44:40.360Z,9.63
2022-10-07T07:47:10.541Z,10.53
2022-10-07T07:49:38.472Z,15.97
2022-10-07T07:52:08.717Z,11.70
2022-10-07T07:54:42.221Z,8.70
2022-10-07T07:57:09.729Z,10.37
2022-10-07T07:59:37.584Z,9.43
2022-10-07T08:02:06.235Z,11.60
2022-10-07T08:04:34.249Z,9.43
2022-10-07T08:07:01.509Z,9.63
2022-10-07T08:09:29.465Z,9.93
2022-10-07T08:11:57.820Z,12.83
2022-10-07T08:14:25.615Z,11.80
2022-10-07T08:16:55.782Z,10.23
2022-10-07T08:19:22.836Z,11.37
2022-10-07T08:21:49.844Z,7.20
2022-10-07T08:24:25.137Z,6.73
2022-10-07T08:26:53.815Z,12.70
2022-10-07T08:29:21.250Z,13.37
2022-10-07T08:31:49.517Z,6.37
2022-10-07T08:34:16.572Z,9.43
2022-10-07T08:36:47.457Z,5.63
2022-10-07T08:39:15.224Z,7.23
2022-10-07T08:41:42.057Z,11.47
2022-10-07T08:44:20.919Z,7.63
2022-10-07T08:46:57.008Z,6.07
2022-10-07T08:49:28.158Z,10.10
2022-10-07T08:51:58.616Z,9.80
2022-10-07T08:54:27.110Z,7.03
2022-10-07T08:56:58.242Z,8.10
2022-10-07T08:59:31.440Z,8.93
2022-10-07T09:02:03.122Z,8.67
2022-10-07T09:04:33.327Z,7.63
2022-10-07T09:07:02.290Z,6.30
2022-10-07T09:09:34.048Z,7.83
2022-10-07T09:12:02.313Z,8.87
2022-10-07T09:14:37.518Z,5.77
2022-10-07T09:17:11.012Z,8.80
2022-10-07T09:19:44.122Z,10.13
2022-10-07T09:22:19.656Z,9.23
2022-10-07T09:24:47.035Z,8.03
2022-10-07T09:27:16.144Z,6.73
2022-10-07T09:29:43.060Z,7.63
2022-10-07T09:32:12.232Z,8.50
2022-10-07T09:34:39.017Z,7.23
2022-10-07T09:37:08.615Z,7.63
2022-10-07T09:39:35.614Z,6.73
2022-10-07T09:42:06.865Z,10.00
2022-10-07T09:44:33.794Z,10.03
2022-10-07T09:47:12.431Z,9.80
2022-10-07T09:49:41.327Z,5.80
2022-10-07T09:52:16.761Z,10.60
2022-10-07T09:54:44.767Z,7.90
2022-10-07T09:57:26.748Z,12.07
2022-10-07T10:00:13.484Z,8.53
2022-10-07T10:02:41.545Z,10.03
2022-10-07T10:05:25.833Z,8.40
2022-10-07T10:07:54.033Z,9.17
2022-10-07T10:10:27.196Z,8.70
2022-10-07T10:12:56.445Z,12.73
2022-10-07T10:15:23.333Z,8.23
2022-10-07T10:17:50.295Z,7.37
2022-10-07T10:20:26.441Z,8.97
2022-10-07T10:22:53.662Z,9.27
2022-10-07T10:25:47.094Z,7.47
2022-10-07T10:28:20.137Z,11.93
2022-10-07T10:30:57.652Z,10.13
2022-10-07T10:33:27.399Z,10.80
2022-10-07T10:35:59.832Z,12.97
2022-10-07T10:38:33.408Z,11.23
2022-10-07T10:41:00.203Z,12.93
2022-10-07T10:43:39.222Z,17.43
2022-10-07T10:46:26.826Z,16.63
2022-10-07T10:49:12.268Z,9.43
2022-10-07T10:51:44.955Z,15.83
2022-10-07T10:54:14.959Z,11.43
2022-10-07T10:56:44.736Z,14.30
2022-10-07T10:59:14.667Z,15.33
2022-10-07T11:01:42.653Z,16.10
2022-10-07T11:04:18.540Z,15.13
2022-10-07T11:06:48.799Z,14.77
2022-10-07T11:09:38.880Z,18.00
2022-10-07T11:12:10.860Z,14.20
2022-10-07T11:14:46.506Z,13.77
2022-10-07T11:17:13.832Z,17.03
2022-10-07T11:19:43.539Z,17.70
2022-10-07T11:22:18.007Z,19.10
2022-10-07T11:24:55.093Z,16.43
2022-10-07T11:27:25.425Z,13.00
2022-10-07T11:29:59.126Z,11.03
2022-10-07T11:32:44.601Z,11.73
2022-10-07T11:35:18.009Z,18.13
2022-10-07T11:37:52.543Z,10.77
2022-10-07T11:40:19.853Z,16.17
2022-10-07T11:42:50.132Z,12.27
2022-10-07T11:45:20.225Z,12.10
2022-10-07T11:47:50.625Z,9.00
2022-10-07T11:50:20.447Z,11.27
2022-10-07T11:52:49.656Z,10.03
2022-10-07T11:55:29.047Z,14.67
2022-10-07T11:57:57.527Z,8.80
2022-10-07T12:00:35.579Z,9.20
2022-10-07T12:03:31.614Z,8.90
2022-10-07T12:06:07.278Z,8.70
2022-10-07T12:08:38.564Z,11.07
2022-10-07T12:11:11.239Z,7.70
2022-10-07T12:13:46.206Z,10.27
2022-10-07T12:16:28.550Z,8.10
2022-10-07T12:19:07.708Z,6.90
2022-10-07T12:21:53.383Z,6.87
2022-10-07T12:24:20.333Z,11.17
2022-10-07T12:26:48.666Z,10.37
2022-10-07T12:29:35.732Z,10.27
2022-10-07T12:32:02.734Z,9.17
2022-10-07T12:34:40.326Z,10.00
2022-10-07T12:37:26.004Z,8.10
2022-10-07T12:39:52.939Z,9.43
2022-10-07T12:42:19.829Z,9.97
2022-10-07T12:44:52.854Z,7.47
2022-10-07T12:47:22.741Z,12.63
2022-10-07T12:49:50.978Z,7.30
2022-10-07T12:52:19.102Z,9.10
2022-10-07T12:54:55.947Z,9.47
2022-10-07T12:57:24.077Z,14.40
2022-10-07T13:00:08.217Z,9.43
2022-10-07T13:02:55.363Z,9.47
2022-10-07T13:05:25.295Z,10.37
2022-10-07T13:08:08.915Z,7.57
2022-10-07T13:10:48.110Z,8.90
2022-10-07T13:13:25.229Z,10.33
2022-10-07T13:16:18.602Z,13.37
2022-10-07T13:18:48.970Z,14.60
2022-10-07T13:21:35.687Z,8.00
2022-10-07T13:24:03.090Z,7.87
2022-10-07T13:26:29.955Z,9.30
2022-10-07T13:28:58.300Z,12.10
2022-10-07T13:31:29.477Z,11.07
2022-10-07T13:33:57.449Z,9.60
2022-10-07T13:36:25.340Z,9.80
2022-10-07T13:38:54.123Z,7.93
2022-10-07T13:41:21.151Z,11.80
2022-10-07T13:43:52.700Z,10.40
2022-10-07T13:46:19.932Z,9.33
2022-10-07T13:48:46.893Z,10.57
2022-10-07T13:51:16.977Z,10.57
2022-10-07T13:53:43.821Z,13.23
2022-10-07T13:56:29.526Z,10.23
2022-10-07T13:58:57.501Z,9.73
2022-10-07T14:01:27.556Z,9.30
2022-10-07T14:04:25.406Z,11.13
2022-10-07T14:06:53.733Z,13.67
2022-10-07T14:09:32.640Z,15.03
2022-10-07T14:12:08.167Z,9.93
2022-10-07T14:14:37.534Z,12.40
2022-10-07T14:17:09.380Z,14.83
2022-10-07T14:19:36.583Z,9.90
2022-10-07T14:22:04.661Z,10.37
2022-10-07T14:24:31.778Z,12.87
2022-10-07T14:26:58.698Z,11.43
2022-10-07T14:29:31.594Z,10.23
2022-10-07T14:32:25.937Z,10.13
2022-10-07T14:35:11.137Z,12.57
2022-10-07T14:37:38.115Z,14.33
2022-10-07T14:40:16.095Z,10.07
2022-10-07T14:42:43.198Z,9.63
2022-10-07T14:45:14.287Z,11.37
2022-10-07T14:47:41.589Z,8.97
2022-10-07T14:50:08.699Z,9.60
2022-10-07T14:52:43.582Z,10.43
2022-10-07T14:55:14.698Z,9.83
2022-10-07T14:57:41.533Z,16.27
2022-10-07T15:00:20.716Z,11.10
2022-10-07T15:02:48.623Z,7.53
2022-10-07T15:05:15.742Z,9.60
2022-10-07T15:07:42.807Z,7.90
2022-10-07T15:10:17.144Z,10.37
2022-10-07T15:12:44.692Z,10.57
2022-10-07T15:15:12.896Z,10.67
2022-10-07T15:17:40.187Z,9.97
2022-10-07T15:20:07.926Z,10.33
2022-10-07T15:22:34.806Z,9.80
2022-10-07T15:25:03.479Z,7.10
2022-10-07T15:27:30.543Z,7.37
2022-10-07T15:29:57.447Z,10.57
2022-10-07T15:32:24.516Z,13.37
2022-10-07T15:34:55.329Z,9.23
2022-10-07T15:37:22.265Z,11.87
2022-10-07T15:39:49.060Z,14.70
2022-10-07T15:42:16.116Z,17.53
2022-10-07T15:44:44.533Z,12.63
2022-10-07T15:47:13.621Z,11.40
2022-10-07T15:49:40.933Z,10.40
2022-10-07T15:52:09.213Z,12.00
2022-10-07T15:54:37.021Z,13.30
2022-10-07T15:57:04.290Z,9.97
2022-10-07T15:59:31.123Z,10.17
2022-10-07T16:01:58.313Z,10.97
2022-10-07T16:04:25.371Z,9.87
2022-10-07T16:06:52.283Z,18.13
2022-10-07T16:09:20.026Z,13.57
2022-10-07T16:11:47.825Z,13.17
2022-10-07T16:14:14.924Z,13.70
2022-10-07T16:16:42.132Z,10.47
2022-10-07T16:19:09.432Z,10.57
2022-10-07T16:21:38.177Z,13.33
2022-10-07T16:24:06.688Z,13.33
2022-10-07T16:26:35.909Z,12.30
2022-10-07T16:29:23.064Z,13.70
2022-10-07T16:31:54.534Z,16.27
2022-10-07T16:34:24.248Z,17.47
2022-10-07T16:36:51.048Z,18.93
2022-10-07T16:39:19.286Z,22.20
2022-10-07T16:41:46.921Z,19.90
2022-10-07T16:44:14.819Z,14.03
2022-10-07T16:46:42.081Z,13.37
2022-10-07T16:49:11.724Z,14.63
2022-10-07T16:51:38.887Z,16.40
2022-10-07T16:54:13.121Z,14.30
2022-10-07T16:56:41.356Z,14.17
2022-10-07T16:59:10.513Z,12.47
2022-10-07T17:01:39.364Z,12.07
2022-10-07T17:04:07.143Z,14.83
2022-10-07T17:06:34.573Z,17.93
2022-10-07T17:09:03.280Z,13.13
2022-10-07T17:11:34.030Z,22.80
2022-10-07T17:14:02.500Z,15.50
2022-10-07T17:16:30.364Z,13.20
2022-10-07T17:18:57.506Z,12.20
2022-10-07T17:21:24.334Z,16.87
2022-10-07T17:23:51.185Z,13.33
2022-10-07T17:26:20.051Z,17.40
2022-10-07T17:28:49.994Z,15.13
2022-10-07T17:31:17.040Z,15.73
2022-10-07T17:33:44.381Z,16.77
2022-10-07T17:36:12.155Z,21.83
2022-10-07T17:38:45.152Z,29.43
2022-10-07T17:41:12.714Z,21.33
2022-10-07T17:43:40.419Z,21.73
2022-10-07T17:46:12.715Z,22.63
2022-10-07T17:48:50.453Z,22.37
2022-10-07T17:51:18.732Z,19.03
2022-10-07T17:53:45.895Z,18.30
2022-10-07T17:56:14.854Z,21.50
2022-10-07T17:58:44.228Z,19.43
2022-10-07T18:01:13.850Z,20.07
2022-10-07T18:03:41.585Z,20.10
2022-10-07T18:06:09.207Z,21.87
2022-10-07T18:08:36.667Z,23.73
2022-10-07T18:11:04.089Z,25.37
2022-10-07T18:13:50.328Z,25.53
2022-10-07T18:16:17.674Z,18.10
2022-10-07T18:18:45.243Z,25.47
2022-10-07T18:21:12.382Z,20.47
2022-10-07T18:23:41.014Z,20.37
2022-10-07T18:26:10.418Z,21.23
2022-10-07T18:28:38.488Z,21.17
2022-10-07T18:31:11.479Z,17.53
2022-10-07T18:33:39.009Z,24.13
2022-10-07T18:36:07.210Z,18.73
2022-10-07T18:38:35.157Z,20.63
2022-10-07T18:41:03.017Z,17.40
2022-10-07T18:43:30.727Z,21.50
2022-10-07T18:46:08.009Z,17.33
2022-10-07T18:48:35.664Z,18.03
2022-10-07T18:51:03.071Z,20.63
2022-10-07T18:53:34.467Z,16.83
2022-10-07T18:56:05.117Z,17.67
2022-10-07T18:58:39.327Z,17.83
2022-10-07T19:01:10.575Z,17.97
2022-10-07T19:03:37.579Z,20.87
2022-10-07T19:06:08.625Z,17.83
2022-10-07T19:08:35.709Z,23.80
2022-10-07T19:11:03.510Z,21.50
2022-10-07T19:13:48.321Z,19.80
2022-10-07T19:16:16.159Z,23.37
2022-10-07T19:18:43.898Z,27.07
2022-10-07T19:21:13.842Z,26.80
2022-10-07T19:23:40.883Z,24.07
2022-10-07T19:26:08.438Z,22.83
2022-10-07T19:28:36.711Z,28.43
2022-10-07T19:31:16.914Z,29.00
2022-10-07T19:33:45.009Z,22.47
2022-10-07T19:36:13.052Z,28.60
2022-10-07T19:38:43.325Z,27.27
2022-10-07T19:41:12.116Z,25.53
2022-10-07T19:43:39.780Z,22.10
2022-10-07T19:46:06.779Z,25.30
2022-10-07T19:48:34.233Z,26.60
2022-10-07T19:51:02.181Z,20.97
2022-10-07T19:53:34.031Z,24.47
2022-10-07T19:56:02.453Z,23.57
2022-10-07T19:58:31.584Z,23.43
2022-10-07T20:01:05.845Z,22.27
2022-10-07T20:03:32.811Z,25.97
2022-10-07T20:06:00.440Z,25.93
2022-10-07T20:08:28.189Z,25.23
2022-10-07T20:10:55.022Z,27.77
2022-10-07T20:13:21.906Z,27.23
2022-10-07T20:15:50.262Z,24.77
2022-10-07T20:18:17.372Z,24.50
2022-10-07T20:20:44.371Z,23.60
2022-10-07T20:23:11.121Z,22.10
2022-10-07T20:25:38.395Z,28.07
2022-10-07T20:28:05.834Z,23.33
2022-10-07T20:30:34.363Z,21.50
2022-10-07T20:33:01.214Z,26.13
2022-10-07T20:35:33.067Z,24.67
2022-10-07T20:38:00.857Z,21.77
2022-10-07T20:40:45.923Z,24.30
2022-10-07T20:43:13.091Z,38.90
2022-10-07T20:45:56.509Z,42.63
2022-10-07T20:48:23.628Z,44.27
2022-10-07T20:50:51.097Z,37.97
2022-10-07T20:53:17.980Z,39.43
2022-10-07T20:55:45.483Z,35.27
2022-10-07T20:58:13.843Z,29.47
2022-10-07T21:00:41.119Z,30.53
2022-10-07T21:03:08.086Z,26.80
2022-10-07T21:05:36.068Z,30.67
2022-10-07T21:08:03.069Z,30.10
2022-10-07T21:10:29.831Z,27.33
2022-10-07T21:12:56.710Z,30.37
2022-10-07T21:15:23.568Z,29.07
2022-10-07T21:17:50.411Z,28.23
2022-10-07T21:20:17.230Z,28.53
2022-10-07T21:22:44.419Z,31.10
2022-10-07T21:25:12.098Z,31.47
2022-10-07T21:27:38.972Z,27.20
2022-10-07T21:30:06.043Z,36.17
2022-10-07T21:32:32.937Z,36.13
2022-10-07T21:34:59.924Z,32.40
2022-10-07T21:37:26.852Z,34.83
2022-10-07T21:39:53.663Z,33.57
2022-10-07T21:42:21.081Z,33.37
2022-10-07T21:44:47.897Z,31.43
2022-10-07T21:47:14.860Z,33.70
2022-10-07T21:49:41.630Z,36.17
2022-10-07T21:52:08.577Z,35.73
2022-10-07T21:54:36.704Z,34.80
2022-10-07T21:57:04.696Z,33.63
2022-10-07T21:59:33.789Z,35.50
2022-10-07T22:02:01.166Z,34.77
2022-10-07T22:04:30.901Z,34.00
2022-10-07T22:07:16.690Z,33.23
2022-10-07T22:09:43.537Z,33.87
2022-10-07T22:12:10.291Z,32.77
2022-10-07T22:14:37.575Z,29.20
2022-10-07T22:17:04.524Z,27.40
2022-10-07T22:19:31.354Z,30.43
2022-10-07T22:21:58.253Z,31.90
2022-10-07T22:24:25.009Z,29.47
2022-10-07T22:26:52.369Z,32.10
2022-10-07T22:29:19.413Z,29.13
2022-10-07T22:31:47.238Z,27.73
2022-10-07T22:34:34.314Z,30.07
2022-10-07T22:37:01.214Z,26.17
2022-10-07T22:39:31.042Z,27.47
2022-10-07T22:41:58.740Z,24.03
2022-10-07T22:44:28.721Z,26.00
2022-10-07T22:46:56.227Z,20.40
2022-10-07T22:49:28.637Z,25.07
2022-10-07T22:51:56.588Z,28.63
2022-10-07T22:54:23.418Z,26.67
2022-10-07T22:56:50.222Z,24.73
2022-10-07T22:59:17.073Z,32.73
2022-10-07T23:01:43.851Z,27.40
2022-10-07T23:04:10.830Z,29.40
2022-10-07T23:06:37.594Z,26.50
2022-10-07T23:09:04.774Z,27.30
2022-10-07T23:11:31.738Z,28.50
2022-10-07T23:13:58.566Z,24.53
2022-10-07T23:16:27.329Z,22.43
2022-10-07T23:18:54.262Z,26.50
2022-10-07T23:21:25.677Z,26.77
2022-10-07T23:23:53.985Z,24.90
2022-10-07T23:26:26.363Z,23.80
2022-10-07T23:28:54.044Z,24.80
2022-10-07T23:31:21.738Z,20.80
2022-10-07T23:33:54.221Z,28.27
2022-10-07T23:36:21.597Z,23.67
2022-10-07T23:38:49.246Z,25.07
2022-10-07T23:41:23.414Z,23.00
2022-10-07T23:43:51.118Z,26.60
2022-10-07T23:46:18.628Z,25.83
2022-10-07T23:48:45.673Z,23.53
2022-10-07T23:51:13.398Z,27.27
2022-10-07T23:53:40.440Z,21.40
2022-10-07T23:56:07.276Z,33.60
2022-10-07T23:58:34.490Z,29.23
